createdAt,value
2023-05-02T00:01:17.840Z,6.08
2023-05-02T00:03:45.056Z,6.02
2023-05-02T00:06:12.846Z,5.99
2023-05-02T00:08:40.514Z,5.98
2023-05-02T00:11:07.506Z,6.00
2023-05-02T00:13:34.498Z,6.02
2023-05-02T00:16:01.685Z,6.04
2023-05-02T00:18:28.586Z,6.05
2023-05-02T00:20:56.651Z,6.06
2023-05-02T00:23:24.196Z,6.07
2023-05-02T00:25:51.361Z,6.07
2023-05-02T00:28:18.811Z,6.03
2023-05-02T00:30:46.317Z,5.93
2023-05-02T00:33:15.142Z,5.80
2023-05-02T00:35:42.414Z,5.70
2023-05-02T00:38:09.486Z,5.59
2023-05-02T00:40:46.486Z,5.49
2023-05-02T00:43:14.138Z,5.42
2023-05-02T00:45:42.325Z,5.35
2023-05-02T00:48:09.704Z,5.27
2023-05-02T00:50:41.156Z,5.20
2023-05-02T00:53:08.897Z,5.17
2023-05-02T00:55:35.918Z,5.17
2023-05-02T00:58:12.054Z,5.17
2023-05-02T01:01:20.898Z,5.19
2023-05-02T01:04:00.223Z,5.18
2023-05-02T01:06:44.885Z,5.19
2023-05-02T01:09:37.324Z,5.19
2023-05-02T01:12:43.583Z,5.20
2023-05-02T01:15:12.902Z,5.21
2023-05-02T01:17:39.900Z,5.21
2023-05-02T01:20:09.192Z,5.22
2023-05-02T01:22:36.152Z,5.21
2023-05-02T01:25:20.182Z,5.19
2023-05-02T01:27:54.711Z,5.18
2023-05-02T01:30:21.835Z,5.16
2023-05-02T01:32:48.849Z,5.16
2023-05-02T01:35:16.586Z,5.15
2023-05-02T01:37:44.922Z,5.11
2023-05-02T01:40:12.359Z,5.10
2023-05-02T01:42:39.354Z,5.09
2023-05-02T01:45:07.443Z,5.07
2023-05-02T01:47:36.125Z,5.04
2023-05-02T01:50:08.062Z,5.01
2023-05-02T01:52:35.646Z,5.00
2023-05-02T01:55:02.679Z,5.00
2023-05-02T01:57:29.792Z,4.96
2023-05-02T01:59:57.463Z,4.91
2023-05-02T02:02:27.330Z,4.87
2023-05-02T02:04:57.529Z,4.85
2023-05-02T02:07:24.541Z,4.80
2023-05-02T02:09:51.774Z,4.76
2023-05-02T02:12:25.992Z,4.75
2023-05-02T02:15:21.224Z,4.74
2023-05-02T02:17:50.575Z,4.73
2023-05-02T02:20:17.617Z,4.69
2023-05-02T02:22:44.639Z,4.64
2023-05-02T02:25:12.515Z,4.61
2023-05-02T02:27:39.553Z,4.60
2023-05-02T02:30:07.774Z,4.60
2023-05-02T02:32:34.878Z,4.57
2023-05-02T02:35:03.209Z,4.51
2023-05-02T02:37:35.684Z,4.47
2023-05-02T02:40:09.122Z,4.44
2023-05-02T02:43:04.395Z,4.43
2023-05-02T02:45:38.527Z,4.43
2023-05-02T02:48:33.535Z,4.46
2023-05-02T02:51:14.078Z,4.49
2023-05-02T02:53:55.848Z,4.49
2023-05-02T02:56:36.611Z,4.44
2023-05-02T02:59:06.814Z,4.33
2023-05-02T03:01:33.808Z,4.30
2023-05-02T03:04:00.943Z,4.32
2023-05-02T03:06:27.950Z,4.37
2023-05-02T03:08:56.620Z,4.45
2023-05-02T03:11:24.102Z,4.52
2023-05-02T03:13:53.008Z,4.58
2023-05-02T03:16:34.265Z,4.64
2023-05-02T03:19:01.478Z,4.72
2023-05-02T03:21:28.514Z,4.80
2023-05-02T03:23:56.583Z,4.86
2023-05-02T03:26:23.616Z,4.94
2023-05-02T03:28:51.708Z,4.98
2023-05-02T03:31:20.431Z,5.00
2023-05-02T03:33:48.382Z,5.00
2023-05-02T03:36:16.384Z,5.04
2023-05-02T03:38:43.477Z,5.09
2023-05-02T03:41:11.006Z,5.16
2023-05-02T03:43:38.691Z,5.26
2023-05-02T03:46:09.756Z,5.38
2023-05-02T03:48:37.760Z,5.52
2023-05-02T03:51:05.827Z,5.68
2023-05-02T03:53:38.694Z,5.97
2023-05-02T03:56:08.128Z,6.56
2023-05-02T03:58:41.456Z,7.47
2023-05-02T04:01:16.500Z,8.48
2023-05-02T04:03:46.260Z,9.62
2023-05-02T04:06:15.186Z,10.64
2023-05-02T04:08:44.536Z,11.56
2023-05-02T04:11:11.959Z,12.43
2023-05-02T04:13:39.142Z,13.26
2023-05-02T04:16:06.335Z,14.03
2023-05-02T04:18:35.149Z,14.71
2023-05-02T04:21:03.715Z,15.34
2023-05-02T04:23:31.333Z,15.89
2023-05-02T04:26:01.225Z,16.42
2023-05-02T04:28:43.870Z,16.83
2023-05-02T04:31:14.666Z,17.12
2023-05-02T04:33:43.328Z,17.30
2023-05-02T04:36:11.285Z,17.38
2023-05-02T04:38:41.610Z,17.38
2023-05-02T04:41:09.663Z,17.20
2023-05-02T04:43:44.617Z,16.93
2023-05-02T04:46:13.417Z,16.77
2023-05-02T04:48:42.396Z,16.72
2023-05-02T04:51:10.475Z,16.73
2023-05-02T04:53:38.053Z,16.73
2023-05-02T04:56:05.552Z,16.72
2023-05-02T04:58:35.627Z,16.74
2023-05-02T05:01:06.149Z,16.66
2023-05-02T05:03:36.273Z,16.48
2023-05-02T05:06:03.598Z,16.29
2023-05-02T05:08:31.110Z,16.04
2023-05-02T05:10:58.121Z,15.85
2023-05-02T05:13:25.623Z,15.72
2023-05-02T05:15:53.241Z,15.60
2023-05-02T05:18:23.969Z,15.53
2023-05-02T05:20:50.942Z,15.53
2023-05-02T05:23:17.941Z,15.56
2023-05-02T05:25:45.955Z,15.60
2023-05-02T05:28:15.619Z,15.57
2023-05-02T05:30:42.700Z,15.53
2023-05-02T05:33:12.269Z,15.50
2023-05-02T05:35:39.427Z,15.48
2023-05-02T05:38:07.050Z,15.48
2023-05-02T05:40:36.362Z,15.49
2023-05-02T05:43:04.184Z,15.49
2023-05-02T05:45:34.764Z,15.55
2023-05-02T05:48:01.799Z,15.59
2023-05-02T05:50:31.713Z,15.61
2023-05-02T05:52:58.774Z,15.61
2023-05-02T05:55:27.860Z,15.63
2023-05-02T05:57:55.120Z,15.64
2023-05-02T06:00:22.322Z,15.70
2023-05-02T06:02:50.070Z,15.75
2023-05-02T06:05:24.928Z,15.82
2023-05-02T06:07:52.269Z,15.86
2023-05-02T06:10:19.248Z,15.90
2023-05-02T06:12:49.148Z,15.98
2023-05-02T06:15:18.384Z,16.10
2023-05-02T06:17:45.382Z,16.20
2023-05-02T06:20:12.538Z,16.31
2023-05-02T06:22:40.225Z,16.41
2023-05-02T06:25:09.016Z,16.51
2023-05-02T06:27:36.012Z,16.57
2023-05-02T06:30:03.554Z,16.64
2023-05-02T06:32:34.174Z,16.75
2023-05-02T06:35:01.942Z,16.87
2023-05-02T06:37:33.490Z,16.98
2023-05-02T06:40:00.699Z,17.03
2023-05-02T06:42:29.598Z,17.06
2023-05-02T06:44:56.657Z,17.10
2023-05-02T06:47:24.559Z,17.18
2023-05-02T06:49:53.068Z,17.27
2023-05-02T06:52:20.134Z,17.36
2023-05-02T06:54:47.130Z,17.41
2023-05-02T06:57:14.133Z,17.45
2023-05-02T06:59:43.193Z,17.53
2023-05-02T07:02:11.523Z,17.66
2023-05-02T07:04:38.718Z,17.74
2023-05-02T07:07:06.339Z,17.80
2023-05-02T07:09:33.362Z,17.87
2023-05-02T07:12:01.087Z,17.93
2023-05-02T07:14:28.150Z,17.92
2023-05-02T07:16:55.307Z,17.90
2023-05-02T07:19:22.908Z,17.95
2023-05-02T07:21:50.626Z,18.05
2023-05-02T07:24:17.615Z,18.15
2023-05-02T07:26:44.805Z,18.22
2023-05-02T07:29:11.843Z,18.26
2023-05-02T07:31:39.676Z,18.31
2023-05-02T07:34:06.817Z,18.36
2023-05-02T07:36:34.012Z,18.37
2023-05-02T07:39:01.063Z,18.39
2023-05-02T07:41:28.050Z,18.43
2023-05-02T07:43:56.004Z,18.49
2023-05-02T07:46:23.660Z,18.57
2023-05-02T07:48:51.024Z,18.64
2023-05-02T07:51:20.935Z,18.64
2023-05-02T07:53:50.478Z,18.64
2023-05-02T07:56:17.554Z,18.70
2023-05-02T07:58:44.599Z,18.77
2023-05-02T08:01:11.715Z,18.84
2023-05-02T08:03:38.890Z,18.93
2023-05-02T08:06:05.986Z,18.97
2023-05-02T08:08:33.051Z,18.98
2023-05-02T08:11:00.283Z,19.02
2023-05-02T08:13:27.564Z,19.02
2023-05-02T08:15:58.422Z,18.92
2023-05-02T08:18:25.917Z,18.90
2023-05-02T08:20:56.100Z,18.98
2023-05-02T08:23:23.026Z,19.10
2023-05-02T08:25:50.011Z,19.14
2023-05-02T08:28:17.022Z,19.14
2023-05-02T08:30:45.410Z,19.20
2023-05-02T08:33:13.030Z,19.33
2023-05-02T08:35:40.638Z,19.46
2023-05-02T08:38:07.853Z,19.52
2023-05-02T08:40:42.077Z,19.57
2023-05-02T08:43:11.222Z,19.63
2023-05-02T08:45:42.835Z,19.70
2023-05-02T08:48:11.835Z,19.79
2023-05-02T08:50:48.358Z,19.87
2023-05-02T08:53:15.693Z,19.94
2023-05-02T08:55:43.163Z,19.90
2023-05-02T08:58:12.798Z,19.88
2023-05-02T09:00:42.208Z,19.92
2023-05-02T09:03:25.079Z,19.97
2023-05-02T09:05:53.875Z,20.06
2023-05-02T09:08:22.929Z,20.14
2023-05-02T09:10:51.460Z,20.24
2023-05-02T09:13:38.585Z,20.24
2023-05-02T09:16:07.329Z,20.23
2023-05-02T09:18:41.921Z,20.15
2023-05-02T09:21:10.773Z,20.06
2023-05-02T09:23:40.796Z,19.98
2023-05-02T09:26:31.576Z,19.95
2023-05-02T09:29:05.520Z,20.00
2023-05-02T09:34:13.696Z,20.04
2023-05-02T09:36:42.451Z,20.10
2023-05-02T09:39:17.572Z,20.16
2023-05-02T09:41:45.651Z,20.19
2023-05-02T09:44:20.419Z,20.27
2023-05-02T09:46:49.064Z,20.38
2023-05-02T09:49:19.100Z,20.44
2023-05-02T09:51:47.440Z,20.47
2023-05-02T09:54:16.178Z,20.53
2023-05-02T09:56:59.036Z,20.61
2023-05-02T09:59:26.027Z,20.69
2023-05-02T10:02:03.609Z,20.72
2023-05-02T10:04:32.206Z,20.74
2023-05-02T10:06:59.661Z,20.75
2023-05-02T10:09:27.583Z,20.75
2023-05-02T10:11:55.347Z,20.73
2023-05-02T10:14:23.938Z,20.80
2023-05-02T10:16:55.978Z,21.11
2023-05-02T10:20:12.374Z,21.57
2023-05-02T10:22:39.386Z,22.10
2023-05-02T10:25:06.673Z,22.45
2023-05-02T10:27:33.817Z,22.84
2023-05-02T10:30:01.525Z,23.18
2023-05-02T10:32:32.504Z,23.48
2023-05-02T10:35:05.539Z,23.82
2023-05-02T10:37:36.947Z,24.11
2023-05-02T10:40:04.316Z,24.14
2023-05-02T10:42:31.367Z,24.16
2023-05-02T10:44:59.174Z,24.25
2023-05-02T10:47:27.183Z,24.25
2023-05-02T10:49:58.137Z,24.15
2023-05-02T10:52:36.083Z,24.08
2023-05-02T10:55:22.384Z,24.08
2023-05-02T10:58:01.572Z,24.02
2023-05-02T11:00:33.805Z,23.95
2023-05-02T11:03:01.594Z,23.88
2023-05-02T11:05:28.888Z,23.82
2023-05-02T11:08:20.158Z,23.81
2023-05-02T11:10:48.148Z,23.87
2023-05-02T11:13:15.744Z,24.00
2023-05-02T11:15:42.650Z,23.96
2023-05-02T11:18:12.133Z,23.86
2023-05-02T11:20:40.165Z,23.88
2023-05-02T11:23:22.264Z,23.98
2023-05-02T11:25:50.485Z,24.13
2023-05-02T11:28:39.763Z,24.20
2023-05-02T11:31:10.996Z,24.23
2023-05-02T11:33:38.112Z,24.33
2023-05-02T11:36:05.396Z,24.46
2023-05-02T11:38:37.257Z,24.63
2023-05-02T11:41:04.608Z,24.88
2023-05-02T11:43:32.604Z,25.15
2023-05-02T11:46:02.005Z,25.35
2023-05-02T11:48:29.594Z,25.50
2023-05-02T11:50:58.394Z,25.63
2023-05-02T11:53:26.924Z,25.72
2023-05-02T11:55:56.268Z,25.85
2023-05-02T11:58:30.081Z,25.98
2023-05-02T12:00:57.403Z,26.12
2023-05-02T12:03:32.321Z,26.24
2023-05-02T12:06:12.658Z,26.40
2023-05-02T12:08:40.876Z,26.69
2023-05-02T12:11:08.082Z,26.92
2023-05-02T12:13:35.156Z,27.12
2023-05-02T12:16:02.340Z,27.27
2023-05-02T12:18:29.525Z,27.41
2023-05-02T12:20:56.746Z,27.52
2023-05-02T12:23:24.858Z,27.59
2023-05-02T12:25:51.900Z,27.69
2023-05-02T12:28:20.004Z,27.90
2023-05-02T12:30:51.308Z,28.10
2023-05-02T12:33:18.716Z,28.34
2023-05-02T12:35:47.529Z,28.54
2023-05-02T12:38:16.129Z,28.63
2023-05-02T12:41:01.579Z,28.72
2023-05-02T12:43:28.555Z,28.76
2023-05-02T12:46:11.898Z,28.78
2023-05-02T12:48:38.957Z,28.95
2023-05-02T12:51:06.099Z,29.05
2023-05-02T12:53:44.034Z,29.09
2023-05-02T12:56:11.473Z,29.29
2023-05-02T12:58:43.228Z,29.50
2023-05-02T13:01:10.786Z,29.73
2023-05-02T13:03:38.026Z,29.98
2023-05-02T13:06:05.408Z,30.18
2023-05-02T13:08:33.806Z,30.36
2023-05-02T13:11:02.961Z,30.60
2023-05-02T13:13:30.485Z,30.82
2023-05-02T13:15:58.622Z,31.02
2023-05-02T13:18:26.079Z,31.19
2023-05-02T13:20:53.186Z,31.42
2023-05-02T13:23:20.352Z,31.62
2023-05-02T13:25:47.355Z,31.78
2023-05-02T13:28:14.434Z,31.90
2023-05-02T13:30:41.626Z,32.01
2023-05-02T13:33:09.268Z,32.14
2023-05-02T13:35:36.598Z,32.16
2023-05-02T13:38:03.920Z,32.05
2023-05-02T13:40:31.070Z,31.96
2023-05-02T13:42:58.258Z,31.89
2023-05-02T13:45:25.292Z,31.85
2023-05-02T13:47:52.348Z,31.77
2023-05-02T13:50:19.988Z,31.82
2023-05-02T13:52:49.075Z,31.87
2023-05-02T13:55:16.627Z,31.96
2023-05-02T13:57:43.718Z,31.99
2023-05-02T14:00:11.598Z,31.99
2023-05-02T14:02:39.395Z,31.98
2023-05-02T14:05:07.410Z,31.83
2023-05-02T14:07:34.883Z,31.54
2023-05-02T14:10:02.796Z,31.15
2023-05-02T14:12:30.701Z,30.60
2023-05-02T14:14:57.746Z,29.89
2023-05-02T14:17:26.105Z,29.10
2023-05-02T14:19:53.095Z,28.36
2023-05-02T14:22:20.134Z,27.65
2023-05-02T14:24:47.821Z,27.01
2023-05-02T14:27:18.430Z,26.47
2023-05-02T14:29:46.185Z,26.03
2023-05-02T14:32:13.694Z,25.58
2023-05-02T14:34:42.059Z,25.13
2023-05-02T14:37:09.375Z,24.81
2023-05-02T14:39:40.300Z,24.57
2023-05-02T14:42:07.978Z,24.37
2023-05-02T14:44:36.711Z,24.23
2023-05-02T14:47:03.827Z,24.14
2023-05-02T14:49:31.635Z,24.07
2023-05-02T14:51:59.174Z,23.96
2023-05-02T14:54:28.843Z,23.81
2023-05-02T14:56:56.082Z,23.79
2023-05-02T14:59:25.398Z,24.19
2023-05-02T15:01:53.287Z,24.71
2023-05-02T15:04:20.723Z,25.05
2023-05-02T15:06:48.334Z,25.32
2023-05-02T15:09:16.372Z,25.45
2023-05-02T15:11:44.905Z,25.47
2023-05-02T15:14:11.978Z,25.59
2023-05-02T15:16:39.838Z,25.97
2023-05-02T15:19:06.936Z,26.47
2023-05-02T15:21:35.276Z,27.03
2023-05-02T15:24:02.746Z,27.48
2023-05-02T15:26:30.520Z,27.81
2023-05-02T15:29:00.265Z,28.13
2023-05-02T15:31:28.145Z,28.34
2023-05-02T15:33:55.373Z,28.43
2023-05-02T15:36:23.299Z,28.42
2023-05-02T15:38:50.775Z,28.20
2023-05-02T15:41:18.262Z,27.62
2023-05-02T15:43:45.335Z,26.96
2023-05-02T15:46:12.740Z,26.33
2023-05-02T15:48:40.160Z,25.71
2023-05-02T15:51:09.245Z,25.14
2023-05-02T15:53:39.762Z,24.66
2023-05-02T15:56:09.550Z,24.28
2023-05-02T15:58:36.636Z,23.93
2023-05-02T16:01:04.924Z,23.62
2023-05-02T16:03:32.781Z,23.32
2023-05-02T16:06:00.250Z,23.05
2023-05-02T16:08:27.938Z,22.79
2023-05-02T16:10:55.952Z,22.55
2023-05-02T16:13:23.236Z,22.35
2023-05-02T16:15:52.852Z,22.21
2023-05-02T16:18:20.205Z,22.09
2023-05-02T16:20:47.925Z,22.01
2023-05-02T16:23:15.075Z,21.95
2023-05-02T16:25:42.038Z,21.88
2023-05-02T16:28:09.064Z,21.78
2023-05-02T16:30:37.242Z,21.68
2023-05-02T16:33:04.360Z,21.59
2023-05-02T16:35:31.973Z,21.48
2023-05-02T16:37:58.898Z,21.37
2023-05-02T16:40:27.469Z,21.25
2023-05-02T16:42:55.901Z,21.13
2023-05-02T16:45:23.356Z,21.03
2023-05-02T16:47:50.551Z,20.92
2023-05-02T16:50:18.987Z,20.80
2023-05-02T16:52:45.986Z,20.70
2023-05-02T16:55:12.956Z,20.59
2023-05-02T16:57:39.901Z,20.46
2023-05-02T17:00:10.539Z,20.36
2023-05-02T17:02:37.631Z,20.25
2023-05-02T17:05:05.591Z,20.16
2023-05-02T17:07:32.631Z,20.07
2023-05-02T17:09:59.790Z,19.99
2023-05-02T17:12:27.349Z,19.90
2023-05-02T17:14:54.546Z,19.79
2023-05-02T17:17:23.630Z,19.68
2023-05-02T17:19:51.427Z,19.55
2023-05-02T17:22:19.160Z,19.43
2023-05-02T17:24:48.637Z,19.31
2023-05-02T17:27:16.640Z,19.18
2023-05-02T17:29:46.983Z,19.05
2023-05-02T17:32:15.932Z,18.92
2023-05-02T17:34:46.032Z,18.81
2023-05-02T17:37:13.170Z,18.69
2023-05-02T17:39:40.149Z,18.58
2023-05-02T17:42:07.327Z,18.49
2023-05-02T17:44:37.185Z,18.39
2023-05-02T17:47:04.608Z,18.28
2023-05-02T17:49:32.265Z,18.17
2023-05-02T17:51:59.299Z,18.07
2023-05-02T17:54:26.354Z,17.97
2023-05-02T17:56:53.477Z,17.89
2023-05-02T17:59:20.750Z,17.81
2023-05-02T18:01:47.768Z,17.74
2023-05-02T18:04:15.656Z,17.67
2023-05-02T18:06:42.741Z,17.57
2023-05-02T18:09:09.901Z,17.44
2023-05-02T18:11:40.273Z,17.35
2023-05-02T18:14:07.524Z,17.27
2023-05-02T18:16:36.489Z,17.19
2023-05-02T18:19:04.604Z,17.12
2023-05-02T18:21:34.857Z,17.04
2023-05-02T18:24:02.098Z,16.96
2023-05-02T18:26:29.071Z,16.89
2023-05-02T18:28:56.075Z,16.81
2023-05-02T18:31:23.933Z,16.74
2023-05-02T18:33:51.698Z,16.66
2023-05-02T18:36:27.384Z,16.55
2023-05-02T18:38:56.411Z,16.48
2023-05-02T18:41:23.624Z,16.41
2023-05-02T18:43:50.622Z,16.35
2023-05-02T18:46:17.760Z,16.29
2023-05-02T18:48:44.821Z,16.24
2023-05-02T18:51:12.332Z,16.19
2023-05-02T18:53:39.330Z,16.15
2023-05-02T18:56:13.189Z,16.10
2023-05-02T18:58:41.158Z,16.05
2023-05-02T19:01:15.332Z,16.00
2023-05-02T19:03:49.176Z,15.93
2023-05-02T19:06:19.878Z,15.87
2023-05-02T19:08:47.969Z,15.81
2023-05-02T19:11:17.660Z,15.74
2023-05-02T19:13:45.873Z,15.69
2023-05-02T19:16:13.832Z,15.62
2023-05-02T19:18:44.209Z,15.57
2023-05-02T19:21:12.937Z,15.51
2023-05-02T19:23:43.483Z,15.43
2023-05-02T19:26:16.357Z,15.35
2023-05-02T19:31:28.749Z,15.25
2023-05-02T19:33:58.232Z,15.20
2023-05-02T19:36:27.937Z,15.16
2023-05-02T19:38:55.088Z,15.10
2023-05-02T19:41:22.968Z,15.05
2023-05-02T19:43:55.991Z,15.00
2023-05-02T19:46:23.970Z,14.97
2023-05-02T19:48:52.526Z,14.94
2023-05-02T19:51:25.646Z,14.92
2023-05-02T19:53:53.971Z,14.90
2023-05-02T19:56:21.811Z,14.89
2023-05-02T19:58:48.775Z,14.86
2023-05-02T20:01:16.100Z,14.83
2023-05-02T20:03:43.395Z,14.81
2023-05-02T20:06:10.591Z,14.80
2023-05-02T20:08:37.596Z,14.78
2023-05-02T20:11:05.313Z,14.76
2023-05-02T20:13:32.251Z,14.73
2023-05-02T20:15:59.297Z,14.71
2023-05-02T20:18:26.283Z,14.68
2023-05-02T20:20:53.274Z,14.65
2023-05-02T20:23:20.228Z,14.61
2023-05-02T20:25:47.262Z,14.58
2023-05-02T20:28:14.237Z,14.54
2023-05-02T20:30:42.104Z,14.50
2023-05-02T20:33:15.467Z,14.47
2023-05-02T20:35:44.026Z,14.45
2023-05-02T20:38:11.268Z,14.42
2023-05-02T20:40:39.907Z,14.41
2023-05-02T20:43:07.554Z,14.41
2023-05-02T20:45:34.822Z,14.39
2023-05-02T20:48:01.904Z,14.37
2023-05-02T20:50:28.985Z,14.34
2023-05-02T20:52:56.687Z,14.33
2023-05-02T20:55:24.488Z,14.30
2023-05-02T20:57:53.484Z,14.26
2023-05-02T21:00:23.629Z,14.21
2023-05-02T21:02:50.868Z,14.17
2023-05-02T21:05:18.218Z,14.13
2023-05-02T21:07:45.231Z,14.10
2023-05-02T21:10:12.307Z,14.07
2023-05-02T21:12:39.522Z,14.01
2023-05-02T21:15:07.720Z,13.95
2023-05-02T21:17:34.846Z,13.92
2023-05-02T21:20:02.068Z,13.91
2023-05-02T21:22:29.449Z,13.88
2023-05-02T21:24:56.560Z,13.84
2023-05-02T21:27:23.691Z,13.79
2023-05-02T21:29:50.930Z,13.76
2023-05-02T21:32:17.956Z,13.71
2023-05-02T21:34:44.933Z,13.67
2023-05-02T21:37:11.912Z,13.63
2023-05-02T21:39:39.040Z,13.59
2023-05-02T21:42:06.280Z,13.53
2023-05-02T21:44:33.254Z,13.47
2023-05-02T21:47:00.378Z,13.41
2023-05-02T21:49:29.545Z,13.36
2023-05-02T21:51:58.393Z,13.34
2023-05-02T21:54:25.601Z,13.30
2023-05-02T21:56:55.661Z,13.27
2023-05-02T21:59:22.608Z,13.24
2023-05-02T22:01:49.634Z,13.18
2023-05-02T22:04:17.625Z,13.15
2023-05-02T22:06:51.829Z,13.10
2023-05-02T22:09:20.882Z,13.05
2023-05-02T22:11:47.933Z,13.01
2023-05-02T22:14:14.977Z,12.96
2023-05-02T22:16:41.998Z,12.92
2023-05-02T22:19:17.760Z,12.90
2023-05-02T22:21:44.764Z,12.89
2023-05-02T22:24:11.730Z,12.88
2023-05-02T22:26:38.689Z,12.87
2023-05-02T22:29:05.636Z,12.86
2023-05-02T22:31:32.608Z,12.84
2023-05-02T22:33:59.578Z,12.79
2023-05-02T22:36:27.925Z,12.76
2023-05-02T22:38:55.219Z,12.75
2023-05-02T22:41:22.174Z,12.74
2023-05-02T22:43:49.137Z,12.73
2023-05-02T22:46:16.250Z,12.70
2023-05-02T22:48:43.228Z,12.66
2023-05-02T22:51:10.221Z,12.62
2023-05-02T22:53:37.146Z,12.58
2023-05-02T22:56:04.535Z,12.54
2023-05-02T22:58:31.615Z,12.50
2023-05-02T23:00:58.583Z,12.47
2023-05-02T23:03:25.604Z,12.47
2023-05-02T23:05:52.617Z,12.46
2023-05-02T23:08:20.057Z,12.47
2023-05-02T23:10:47.145Z,12.48
2023-05-02T23:13:14.104Z,12.48
2023-05-02T23:15:41.717Z,12.49
2023-05-02T23:18:08.794Z,12.49
2023-05-02T23:20:35.873Z,12.49
2023-05-02T23:23:03.344Z,12.49
2023-05-02T23:25:30.303Z,12.47
2023-05-02T23:27:57.301Z,12.45
2023-05-02T23:30:24.225Z,12.43
2023-05-02T23:32:51.823Z,12.42
2023-05-02T23:35:18.923Z,12.39
2023-05-02T23:37:45.930Z,12.34
2023-05-02T23:40:13.621Z,12.29
2023-05-02T23:42:41.050Z,12.25
2023-05-02T23:45:09.151Z,12.19
2023-05-02T23:47:36.608Z,12.12
2023-05-02T23:50:07.422Z,12.08
2023-05-02T23:52:34.355Z,12.06
2023-05-02T23:55:01.386Z,12.02
2023-05-02T23:57:31.372Z,11.97
2023-05-02T23:59:58.319Z,11.94
